createdAt,value
2022-08-18T00:00:20.405Z,10.63
2022-08-18T00:03:00.510Z,9.93
2022-08-18T00:05:28.177Z,10.07
2022-08-18T00:07:57.978Z,9.65
2022-08-18T00:10:25.043Z,11.10
2022-08-18T00:12:51.603Z,11.48
2022-08-18T00:15:26.579Z,10.05
2022-08-18T00:17:53.022Z,11.25
2022-08-18T00:20:23.218Z,10.32
2022-08-18T00:22:50.265Z,9.38
2022-08-18T00:25:18.636Z,9.75
2022-08-18T00:27:45.308Z,9.13
2022-08-18T00:30:15.631Z,7.95
2022-08-18T00:33:03.747Z,7.78
2022-08-18T00:35:33.761Z,7.28
2022-08-18T00:38:02.499Z,8.00
2022-08-18T00:40:38.257Z,7.68
2022-08-18T00:43:07.648Z,7.78
2022-08-18T00:45:39.252Z,7.60
2022-08-18T00:48:08.034Z,7.43
2022-08-18T00:50:49.406Z,7.00
2022-08-18T00:53:26.415Z,6.30
2022-08-18T00:55:55.104Z,7.22
2022-08-18T00:58:32.305Z,7.15
2022-08-18T01:01:05.830Z,7.10
2022-08-18T01:03:34.188Z,6.70
2022-08-18T01:06:06.390Z,6.57
2022-08-18T01:08:33.019Z,6.25
2022-08-18T01:11:02.278Z,7.65
2022-08-18T01:13:32.991Z,6.65
2022-08-18T01:16:20.106Z,7.15
2022-08-18T01:19:05.149Z,6.70
2022-08-18T01:21:51.132Z,7.05
2022-08-18T01:25:03.604Z,7.05
2022-08-18T01:27:31.976Z,7.03
2022-08-18T01:30:05.363Z,6.80
2022-08-18T01:32:31.811Z,6.63
2022-08-18T01:34:59.360Z,6.78
2022-08-18T01:37:25.798Z,6.90
2022-08-18T01:41:25.258Z,7.10
2022-08-18T01:42:39.477Z,6.97
2022-08-18T01:45:08.064Z,6.90
2022-08-18T01:47:48.237Z,6.82
2022-08-18T01:50:15.812Z,7.05
2022-08-18T01:52:42.338Z,6.22
2022-08-18T01:55:09.255Z,7.10
2022-08-18T01:57:44.833Z,7.18
2022-08-18T02:00:14.367Z,7.53
2022-08-18T02:02:42.987Z,7.32
2022-08-18T02:05:14.599Z,7.13
2022-08-18T02:07:41.048Z,6.47
2022-08-18T02:10:16.648Z,6.50
2022-08-18T02:12:43.756Z,7.30
2022-08-18T02:15:11.103Z,6.72
2022-08-18T02:17:39.955Z,7.38
2022-08-18T02:20:09.075Z,7.07
2022-08-18T02:22:36.125Z,7.90
2022-08-18T02:25:03.448Z,7.07
2022-08-18T02:27:29.971Z,7.53
2022-08-18T02:29:59.772Z,7.03
2022-08-18T02:32:26.546Z,7.18
2022-08-18T02:34:55.966Z,7.45
2022-08-18T02:37:22.994Z,7.20
2022-08-18T02:39:49.986Z,7.40
2022-08-18T02:42:16.535Z,7.65
2022-08-18T02:44:43.261Z,7.88
2022-08-18T02:47:10.906Z,7.65
2022-08-18T02:49:37.395Z,7.35
2022-08-18T02:52:04.214Z,7.82
2022-08-18T02:54:30.697Z,7.13
2022-08-18T02:56:57.471Z,7.68
2022-08-18T02:59:27.630Z,7.45
2022-08-18T03:01:56.084Z,7.10
2022-08-18T03:04:29.451Z,7.28
2022-08-18T03:07:00.220Z,7.63
2022-08-18T03:09:27.305Z,7.28
2022-08-18T03:11:54.528Z,7.72
2022-08-18T03:14:27.365Z,7.70
2022-08-18T03:16:55.215Z,7.13
2022-08-18T03:19:28.705Z,8.00
2022-08-18T03:21:58.984Z,8.30
2022-08-18T03:24:29.463Z,8.10
2022-08-18T03:26:58.944Z,7.85
2022-08-18T03:29:31.734Z,7.93
2022-08-18T03:31:59.101Z,7.97
2022-08-18T03:34:25.775Z,7.97
2022-08-18T03:36:52.249Z,8.57
2022-08-18T03:39:20.342Z,7.80
2022-08-18T03:41:58.353Z,8.18
2022-08-18T03:44:33.396Z,7.90
2022-08-18T03:47:03.080Z,8.20
2022-08-18T03:49:31.397Z,7.90
2022-08-18T03:52:00.672Z,7.97
2022-08-18T03:54:31.966Z,8.00
2022-08-18T03:57:00.101Z,8.80
2022-08-18T03:59:28.270Z,7.90
2022-08-18T04:01:55.514Z,7.38
2022-08-18T04:04:24.607Z,7.38
2022-08-18T04:07:00.007Z,9.02
2022-08-18T04:09:28.934Z,8.88
2022-08-18T04:11:56.658Z,9.00
2022-08-18T04:14:25.140Z,9.43
2022-08-18T04:16:52.465Z,8.82
2022-08-18T04:19:25.176Z,8.27
2022-08-18T04:21:55.457Z,9.48
2022-08-18T04:24:32.051Z,8.95
2022-08-18T04:27:04.822Z,10.15
2022-08-18T04:29:31.290Z,8.35
2022-08-18T04:32:01.479Z,8.45
2022-08-18T04:34:27.902Z,9.07
2022-08-18T04:36:54.515Z,10.10
2022-08-18T04:39:23.449Z,10.38
2022-08-18T04:41:50.154Z,10.63
2022-08-18T04:44:18.229Z,9.50
2022-08-18T04:46:48.491Z,9.15
2022-08-18T04:49:17.181Z,9.65
2022-08-18T04:52:26.686Z,10.88
2022-08-18T04:54:52.196Z,10.23
2022-08-18T04:57:20.852Z,10.50
2022-08-18T04:59:50.258Z,9.45
2022-08-18T05:02:18.477Z,10.85
2022-08-18T05:04:48.101Z,10.15
2022-08-18T05:07:17.737Z,9.88
2022-08-18T05:09:44.269Z,10.82
2022-08-18T05:12:15.385Z,9.40
2022-08-18T05:14:45.261Z,10.57
2022-08-18T05:17:13.938Z,11.77
2022-08-18T05:19:42.123Z,10.18
2022-08-18T05:22:11.113Z,10.52
2022-08-18T05:24:39.575Z,11.15
2022-08-18T05:27:07.605Z,11.13
2022-08-18T05:29:45.749Z,12.43
2022-08-18T05:32:38.292Z,12.30
2022-08-18T05:35:09.814Z,11.30
2022-08-18T05:37:43.117Z,11.50
2022-08-18T05:40:11.551Z,10.65
2022-08-18T05:42:40.475Z,10.18
2022-08-18T05:45:13.079Z,11.45
2022-08-18T05:47:39.584Z,10.43
2022-08-18T05:50:19.578Z,12.10
2022-08-18T05:52:57.063Z,12.52
2022-08-18T05:55:53.835Z,10.95
2022-08-18T05:58:33.341Z,11.65
2022-08-18T06:01:08.800Z,11.13
2022-08-18T06:03:47.678Z,11.85
2022-08-18T06:06:20.440Z,10.85
2022-08-18T06:08:56.367Z,10.70
2022-08-18T06:11:23.504Z,10.48
2022-08-18T06:13:52.373Z,10.70
2022-08-18T06:16:56.322Z,11.80
2022-08-18T06:19:27.804Z,11.57
2022-08-18T06:22:15.975Z,11.02
2022-08-18T06:24:42.985Z,11.90
2022-08-18T06:27:18.671Z,10.20
2022-08-18T06:30:04.394Z,10.67
2022-08-18T06:33:00.637Z,9.48
2022-08-18T06:35:29.997Z,9.52
2022-08-18T06:38:40.855Z,9.90
2022-08-18T06:41:42.793Z,9.95
2022-08-18T06:44:39.994Z,9.20
2022-08-18T06:47:41.224Z,9.25
2022-08-18T06:50:13.600Z,10.00
2022-08-18T06:52:51.968Z,9.27
2022-08-18T06:55:31.046Z,8.85
2022-08-18T06:58:01.431Z,8.45
2022-08-18T07:00:32.383Z,7.65
2022-08-18T07:03:17.820Z,9.23
2022-08-18T07:06:06.365Z,8.43
2022-08-18T07:08:35.843Z,9.00
2022-08-18T07:11:17.636Z,8.68
2022-08-18T07:13:46.352Z,8.57
2022-08-18T07:16:54.933Z,9.05
2022-08-18T07:19:20.796Z,8.70
2022-08-18T07:22:11.270Z,9.38
2022-08-18T07:24:44.721Z,9.63
2022-08-18T07:27:22.419Z,9.40
2022-08-18T07:30:15.481Z,8.35
2022-08-18T07:33:04.688Z,8.15
2022-08-18T07:35:43.981Z,8.70
2022-08-18T07:38:41.357Z,9.18
2022-08-18T07:41:22.770Z,10.27
2022-08-18T07:43:52.181Z,10.00
2022-08-18T07:46:31.665Z,9.38
2022-08-18T07:49:01.000Z,8.20
2022-08-18T07:51:45.748Z,7.90
2022-08-18T07:54:44.886Z,7.88
2022-08-18T07:57:41.988Z,7.20
2022-08-18T08:00:41.118Z,6.85
2022-08-18T08:03:48.552Z,7.40
2022-08-18T08:06:27.588Z,6.78
2022-08-18T08:09:19.883Z,7.22
2022-08-18T08:11:58.284Z,7.05
2022-08-18T08:14:53.957Z,7.55
2022-08-18T08:17:55.643Z,6.30
2022-08-18T08:20:22.100Z,6.88
2022-08-18T08:23:09.421Z,7.13
2022-08-18T08:25:49.023Z,6.90
2022-08-18T08:28:33.686Z,6.97
2022-08-18T08:31:36.692Z,7.80
2022-08-18T08:34:16.843Z,7.47
2022-08-18T08:36:46.661Z,6.80
2022-08-18T08:39:38.359Z,7.13
2022-08-18T08:42:30.495Z,7.38
2022-08-18T08:45:25.636Z,7.65
2022-08-18T08:47:55.554Z,7.15
2022-08-18T08:50:31.092Z,7.30
2022-08-18T08:53:06.149Z,6.97
2022-08-18T08:55:37.831Z,6.82
2022-08-18T08:58:23.185Z,6.78
2022-08-18T09:00:53.911Z,6.63
2022-08-18T09:03:56.408Z,7.13
2022-08-18T09:06:52.957Z,6.22
2022-08-18T09:09:36.882Z,7.30
2022-08-18T09:12:56.835Z,7.25
2022-08-18T09:15:44.958Z,6.78
2022-08-18T09:18:30.206Z,6.10
2022-08-18T09:21:11.990Z,6.13
2022-08-18T09:23:44.126Z,6.03
2022-08-18T09:26:40.705Z,6.28
2022-08-18T09:29:45.410Z,5.93
2022-08-18T09:32:22.828Z,6.00
2022-08-18T09:34:56.410Z,5.68
2022-08-18T09:37:34.470Z,5.72
2022-08-18T09:40:51.316Z,6.03
2022-08-18T09:43:39.192Z,6.03
2022-08-18T09:46:12.548Z,5.50
2022-08-18T09:48:43.394Z,5.63
2022-08-18T09:54:28.104Z,4.97
2022-08-18T09:57:19.429Z,5.03
2022-08-18T09:59:49.193Z,5.50
2022-08-18T10:02:30.105Z,4.88
2022-08-18T10:05:27.067Z,5.32
2022-08-18T10:08:06.774Z,5.57
2022-08-18T10:11:09.155Z,5.20
2022-08-18T10:14:05.820Z,5.40
2022-08-18T10:17:15.851Z,4.85
2022-08-18T10:19:50.279Z,5.15
2022-08-18T10:22:50.493Z,5.78
2022-08-18T10:25:32.384Z,5.03
2022-08-18T10:28:05.375Z,5.50
2022-08-18T10:30:57.447Z,5.25
2022-08-18T10:34:00.919Z,5.60
2022-08-18T10:36:46.553Z,6.78
2022-08-18T10:39:19.616Z,6.72
2022-08-18T10:41:57.119Z,6.80
2022-08-18T10:44:29.734Z,6.57
2022-08-18T10:47:00.270Z,6.60
2022-08-18T10:49:31.881Z,6.88
2022-08-18T10:52:10.780Z,6.47
2022-08-18T10:55:10.538Z,7.18
2022-08-18T10:58:21.255Z,7.57
2022-08-18T11:01:30.824Z,8.05
2022-08-18T11:04:14.355Z,7.43
2022-08-18T11:07:18.248Z,7.40
2022-08-18T11:09:57.209Z,7.15
2022-08-18T11:12:43.597Z,7.38
2022-08-18T11:18:03.525Z,7.70
2022-08-18T11:20:32.296Z,7.25
2022-08-18T11:23:02.900Z,6.95
2022-08-18T11:25:34.890Z,7.90
2022-08-18T11:28:02.917Z,7.55
2022-08-18T11:30:35.206Z,7.20
2022-08-18T11:33:03.522Z,7.75
2022-08-18T11:35:58.076Z,7.70
2022-08-18T11:38:31.156Z,8.00
2022-08-18T11:41:20.500Z,7.72
2022-08-18T11:43:50.852Z,8.43
2022-08-18T11:46:27.706Z,7.50
2022-08-18T11:48:54.915Z,7.90
2022-08-18T11:51:33.562Z,7.97
2022-08-18T11:54:12.751Z,8.00
2022-08-18T11:56:39.305Z,7.80
2022-08-18T11:59:07.810Z,7.85
2022-08-18T12:01:46.862Z,7.57
2022-08-18T12:04:13.431Z,8.55
2022-08-18T12:07:20.580Z,8.07
2022-08-18T12:10:26.338Z,7.78
2022-08-18T12:12:59.789Z,7.18
2022-08-18T12:15:44.255Z,8.45
2022-08-18T12:18:18.914Z,8.20
2022-08-18T12:23:48.861Z,8.30
2022-08-18T12:26:27.178Z,8.75
2022-08-18T12:29:05.425Z,7.90
2022-08-18T12:31:45.760Z,8.23
2022-08-18T12:34:15.099Z,8.15
2022-08-18T12:36:42.355Z,8.10
2022-08-18T12:39:13.463Z,7.97
2022-08-18T12:41:40.772Z,8.20
2022-08-18T12:46:56.738Z,7.43
2022-08-18T12:49:24.978Z,7.45
2022-08-18T12:51:58.139Z,7.63
2022-08-18T12:54:35.891Z,7.18
2022-08-18T12:57:33.491Z,7.93
2022-08-18T13:00:15.359Z,7.35
2022-08-18T13:02:44.979Z,7.82
2022-08-18T13:05:12.455Z,8.75
2022-08-18T13:07:39.949Z,8.20
2022-08-18T13:10:06.909Z,9.27
2022-08-18T13:12:35.401Z,9.20
2022-08-18T13:15:01.829Z,8.90
2022-08-18T13:17:33.682Z,8.95
2022-08-18T13:20:03.543Z,8.35
2022-08-18T13:22:32.855Z,8.23
2022-08-18T13:25:01.170Z,7.45
2022-08-18T13:27:32.898Z,7.18
2022-08-18T13:30:02.435Z,6.75
2022-08-18T13:32:59.061Z,7.05
2022-08-18T13:35:29.886Z,7.35
2022-08-18T13:38:04.152Z,6.80
2022-08-18T13:40:45.460Z,7.18
2022-08-18T13:43:21.034Z,6.82
2022-08-18T13:45:53.292Z,7.80
2022-08-18T13:48:23.845Z,7.78
2022-08-18T13:50:56.578Z,8.60
2022-08-18T13:53:24.717Z,8.55
2022-08-18T13:55:53.191Z,8.40
2022-08-18T13:58:20.901Z,8.52
2022-08-18T14:01:15.865Z,8.82
2022-08-18T14:03:59.849Z,8.40
2022-08-18T14:06:30.374Z,9.48
2022-08-18T14:09:01.322Z,8.75
2022-08-18T14:11:51.242Z,9.07
2022-08-18T14:14:18.192Z,8.20
2022-08-18T14:16:45.715Z,7.75
2022-08-18T14:19:30.882Z,8.52
2022-08-18T14:22:26.887Z,9.57
2022-08-18T14:25:22.113Z,9.32
2022-08-18T14:28:03.928Z,9.52
2022-08-18T14:30:32.779Z,8.52
2022-08-18T14:33:00.484Z,8.50
2022-08-18T14:35:55.266Z,9.07
2022-08-18T14:38:18.628Z,8.88
2022-08-18T14:40:47.724Z,10.38
2022-08-18T14:43:18.206Z,9.80
2022-08-18T14:45:48.884Z,10.82
2022-08-18T14:48:18.588Z,9.88
2022-08-18T14:50:50.318Z,10.40
2022-08-18T14:53:21.469Z,9.98
2022-08-18T14:55:52.318Z,10.63
2022-08-18T14:58:28.700Z,12.98
2022-08-18T15:03:31.529Z,10.75
2022-08-18T15:06:00.181Z,11.82
2022-08-18T15:08:28.080Z,13.32
2022-08-18T15:10:56.361Z,13.00
2022-08-18T15:13:26.446Z,14.25
2022-08-18T15:15:54.661Z,13.90
2022-08-18T15:18:22.853Z,14.15
2022-08-18T15:21:34.948Z,15.50
2022-08-18T15:24:20.292Z,14.98
2022-08-18T15:26:47.784Z,15.68
2022-08-18T15:29:19.286Z,17.27
2022-08-18T15:31:50.844Z,17.63
2022-08-18T15:34:20.551Z,17.48
2022-08-18T15:36:47.862Z,17.02
2022-08-18T15:39:15.832Z,17.70
2022-08-18T15:41:46.601Z,17.60
2022-08-18T15:44:17.699Z,18.15
2022-08-18T15:46:51.178Z,18.35
2022-08-18T15:49:21.787Z,19.50
2022-08-18T15:51:48.500Z,18.40
2022-08-18T15:54:16.532Z,18.58
2022-08-18T15:56:46.400Z,20.63
2022-08-18T15:59:33.185Z,19.73
2022-08-18T16:02:11.632Z,19.10
2022-08-18T16:04:40.976Z,19.92
2022-08-18T16:07:07.805Z,18.83
2022-08-18T16:09:36.735Z,19.70
2022-08-18T16:12:03.460Z,20.00
2022-08-18T16:14:30.274Z,19.98
2022-08-18T16:16:56.711Z,19.95
2022-08-18T16:19:25.628Z,19.60
2022-08-18T16:21:55.455Z,19.70
2022-08-18T16:24:23.574Z,19.90
2022-08-18T16:26:51.866Z,19.83
2022-08-18T16:29:19.313Z,19.77
2022-08-18T16:31:45.735Z,20.40
2022-08-18T16:34:12.168Z,20.83
2022-08-18T16:36:41.770Z,21.30
2022-08-18T16:39:08.334Z,19.52
2022-08-18T16:41:37.307Z,20.58
2022-08-18T16:44:05.215Z,20.30
2022-08-18T16:46:32.077Z,20.13
2022-08-18T16:48:59.563Z,20.80
2022-08-18T16:51:28.018Z,20.38
2022-08-18T16:53:56.638Z,20.33
2022-08-18T16:56:26.118Z,20.10
2022-08-18T16:59:11.533Z,18.20
2022-08-18T17:01:57.454Z,18.85
2022-08-18T17:04:28.690Z,17.25
2022-08-18T17:06:56.854Z,15.23
2022-08-18T17:09:23.965Z,14.70
2022-08-18T17:11:52.352Z,13.75
2022-08-18T17:14:21.588Z,12.80
2022-08-18T17:16:54.307Z,9.45
2022-08-18T17:19:23.374Z,8.52
2022-08-18T17:21:51.122Z,8.15
2022-08-18T17:24:19.852Z,6.95
2022-08-18T17:27:25.990Z,4.72
2022-08-18T17:30:07.035Z,4.40
2022-08-18T17:32:41.898Z,2.90
2022-08-18T17:35:17.726Z,2.00
2022-08-18T17:37:59.208Z,1.33
2022-08-18T17:40:47.984Z,1.20
2022-08-18T17:43:20.964Z,0.70
2022-08-18T17:45:54.936Z,0.80
2022-08-18T17:48:27.151Z,0.80
2022-08-18T17:51:19.335Z,0.80
2022-08-18T17:53:47.377Z,0.80
2022-08-18T17:56:35.290Z,0.90
2022-08-18T17:59:42.811Z,1.40
2022-08-18T18:02:28.448Z,2.72
2022-08-18T18:04:57.864Z,2.75
2022-08-18T18:07:53.612Z,3.17
2022-08-18T18:13:33.573Z,3.05
2022-08-18T18:16:28.794Z,2.53
2022-08-18T18:19:01.328Z,2.55
2022-08-18T18:21:53.481Z,2.63
2022-08-18T18:24:17.708Z,2.30
2022-08-18T18:26:51.974Z,2.90
2022-08-18T18:29:37.702Z,1.20
2022-08-18T18:32:29.880Z,1.60
2022-08-18T18:35:16.743Z,1.60
2022-08-18T18:37:48.747Z,1.20
2022-08-18T18:40:21.211Z,1.20
2022-08-18T18:42:48.105Z,1.90
2022-08-18T18:45:30.942Z,2.38
2022-08-18T18:48:09.172Z,1.20
2022-08-18T18:51:11.812Z,1.10
2022-08-18T18:53:56.315Z,1.20
2022-08-18T18:56:33.891Z,1.30
2022-08-18T18:59:17.808Z,1.60
2022-08-18T19:01:49.777Z,1.30
2022-08-18T19:04:23.899Z,1.67
2022-08-18T19:07:21.269Z,1.67
2022-08-18T19:09:50.901Z,2.05
2022-08-18T19:12:30.954Z,1.88
2022-08-18T19:15:08.342Z,2.08
2022-08-18T19:17:40.260Z,2.40
2022-08-18T19:20:13.396Z,2.05
2022-08-18T19:23:00.034Z,2.13
2022-08-18T19:25:30.980Z,1.60
2022-08-18T19:28:17.692Z,0.95
2022-08-18T19:30:48.960Z,1.00
2022-08-18T19:33:25.984Z,1.35
2022-08-18T19:36:02.791Z,1.50
2022-08-18T19:38:41.980Z,1.50
2022-08-18T19:41:20.271Z,1.70
2022-08-18T19:43:56.176Z,1.70
2022-08-18T19:46:40.958Z,1.50
2022-08-18T19:49:38.078Z,1.70
2022-08-18T19:52:45.628Z,2.00
2022-08-18T19:55:28.174Z,1.77
2022-08-18T19:58:18.820Z,1.55
2022-08-18T20:01:10.823Z,1.60
2022-08-18T20:03:58.971Z,1.83
2022-08-18T20:06:55.047Z,2.10
2022-08-18T20:09:38.344Z,1.83
2022-08-18T20:12:23.771Z,2.40
2022-08-18T20:15:17.105Z,1.92
2022-08-18T20:17:58.684Z,2.08
2022-08-18T20:20:29.394Z,2.50
2022-08-18T20:22:57.822Z,2.35
2022-08-18T20:25:24.193Z,2.30
2022-08-18T20:27:59.818Z,2.10
2022-08-18T20:31:13.340Z,2.00
2022-08-18T20:33:46.789Z,2.10
2022-08-18T20:36:21.817Z,2.85
2022-08-18T20:38:54.493Z,2.65
2022-08-18T20:41:27.660Z,3.30
2022-08-18T20:43:57.370Z,2.97
2022-08-18T20:46:44.510Z,3.28
2022-08-18T20:49:17.331Z,3.20
2022-08-18T20:51:57.886Z,2.92
2022-08-18T20:54:28.431Z,3.08
2022-08-18T20:57:01.918Z,2.75
2022-08-18T20:59:35.696Z,2.63
2022-08-18T21:02:06.148Z,3.60
2022-08-18T21:04:33.600Z,3.30
2022-08-18T21:07:00.350Z,3.30
2022-08-18T21:09:39.424Z,3.38
2022-08-18T21:12:05.997Z,3.30
2022-08-18T21:14:32.425Z,4.38
2022-08-18T21:17:00.157Z,3.92
2022-08-18T21:19:29.200Z,4.93
2022-08-18T21:22:01.459Z,4.70
2022-08-18T21:24:37.170Z,4.65
2022-08-18T21:27:19.430Z,4.68
2022-08-18T21:29:49.185Z,5.07
2022-08-18T21:32:31.389Z,4.93
2022-08-18T21:35:03.245Z,5.00
2022-08-18T21:37:33.705Z,5.82
2022-08-18T21:40:05.413Z,5.20
2022-08-18T21:42:43.939Z,4.63
2022-08-18T21:45:22.443Z,5.45
2022-08-18T21:47:53.616Z,5.78
2022-08-18T21:50:23.373Z,6.13
2022-08-18T21:52:57.447Z,6.70
2022-08-18T21:55:30.265Z,6.90
2022-08-18T21:58:18.130Z,6.13
2022-08-18T22:00:46.023Z,5.80
2022-08-18T22:03:25.734Z,5.63
2022-08-18T22:06:20.319Z,6.93
2022-08-18T22:08:54.849Z,6.57
2022-08-18T22:12:00.953Z,6.18
2022-08-18T22:14:36.240Z,7.25
2022-08-18T22:17:43.042Z,7.00
2022-08-18T22:20:31.311Z,7.63
2022-08-18T22:23:27.938Z,7.22
2022-08-18T22:26:12.378Z,7.20
2022-08-18T22:29:10.431Z,6.78
2022-08-18T22:31:45.571Z,7.10
2022-08-18T22:34:28.264Z,7.53
2022-08-18T22:37:08.486Z,7.38
2022-08-18T22:39:39.910Z,7.32
2022-08-18T22:42:07.842Z,7.22
2022-08-18T22:44:34.401Z,8.48
2022-08-18T22:47:01.048Z,7.43
2022-08-18T22:49:27.539Z,8.10
2022-08-18T22:51:55.012Z,8.52
2022-08-18T22:54:23.979Z,8.43
2022-08-18T22:56:56.585Z,8.85
2022-08-18T22:59:25.562Z,8.32
2022-08-18T23:01:54.510Z,8.52
2022-08-18T23:04:22.772Z,7.35
2022-08-18T23:06:53.500Z,8.55
2022-08-18T23:09:26.783Z,8.25
2022-08-18T23:11:55.028Z,7.65
2022-08-18T23:14:22.276Z,9.15
2022-08-18T23:16:49.635Z,9.95
2022-08-18T23:19:18.219Z,8.55
2022-08-18T23:21:45.488Z,8.82
2022-08-18T23:24:14.356Z,8.93
2022-08-18T23:26:41.916Z,9.02
2022-08-18T23:29:11.572Z,8.40
2022-08-18T23:31:39.580Z,9.93
2022-08-18T23:34:07.490Z,7.93
2022-08-18T23:36:34.491Z,9.95
2022-08-18T23:39:00.935Z,10.57
2022-08-18T23:41:27.446Z,9.93
2022-08-18T23:43:54.025Z,9.48
2022-08-18T23:46:28.441Z,9.32
2022-08-18T23:48:58.191Z,8.43
2022-08-18T23:51:30.514Z,7.65
2022-08-18T23:54:09.263Z,7.40
2022-08-18T23:56:37.787Z,7.15
2022-08-18T23:59:06.886Z,6.70
